Time;durP1;ratioP1;P1;durP2;ratioP2;P2;SDS_P1;SDS_P2;PMS_P1;PMS_P2;Temp;Humidity;BMP_temperature;BMP_pressure;BME280_temperature;BME280_humidity;BME280_pressure;Samples;Min_cycle;Max_cycle;Signal;HPM_P1;HPM_P2
2022/04/28 00:02:11;;;;;;;31.02;13.55;;;;;;;7.75;78.02;100135.06;8514617;27;20361;-74
2022/04/28 00:06:12;;;;;;;25.73;13.88;;;;;;;7.63;77.85;100137.19;8482233;27;20043;-74
2022/04/28 00:10:13;;;;;;;27.27;13.40;;;;;;;7.48;78.20;100134.44;8516643;27;20043;-73
2022/04/28 00:14:16;;;;;;;26.55;13.30;;;;;;;7.34;78.33;100134.13;8510262;27;20079;-73
2022/04/28 00:18:17;;;;;;;29.88;13.52;;;;;;;7.21;78.56;100134.59;8517488;27;20038;-73
2022/04/28 00:22:18;;;;;;;27.98;13.15;;;;;;;7.10;78.71;100136.41;8519787;27;20334;-73
2022/04/28 00:26:20;;;;;;;23.33;11.48;;;;;;;6.98;78.77;100135.81;8474048;27;20401;-73
2022/04/28 00:30:21;;;;;;;21.58;11.23;;;;;;;6.88;78.83;100135.75;8517566;27;20048;-73
2022/04/28 00:34:22;;;;;;;26.42;12.27;;;;;;;6.81;79.15;100129.00;8510870;27;20042;-73
2022/04/28 00:38:23;;;;;;;19.88;11.10;;;;;;;6.72;79.05;100131.34;8500425;27;20058;-73
2022/04/28 00:42:24;;;;;;;21.83;9.80;;;;;;;6.61;79.29;100129.69;8510953;27;20051;-73
2022/04/28 00:46:27;;;;;;;21.33;10.43;;;;;;;6.49;79.69;100137.09;8467578;27;20052;-73
2022/04/28 00:50:39;;;;;;;24.02;9.80;;;;;;;6.40;79.71;100133.28;8508036;27;20393;-74
2022/04/28 00:54:42;;;;;;;21.45;10.27;;;;;;;6.27;79.72;100146.03;8486300;27;20039;-73
2022/04/28 00:58:43;;;;;;;19.77;9.75;;;;;;;6.17;79.76;100137.09;8499518;27;20047;-73
2022/04/28 01:02:44;;;;;;;18.60;9.18;;;;;;;6.07;79.88;100140.50;8513040;27;20057;-73
2022/04/28 01:06:45;;;;;;;19.90;9.88;;;;;;;5.99;80.01;100126.72;8522307;27;20042;-73
2022/04/28 01:10:47;;;;;;;16.60;9.40;;;;;;;5.90;80.15;100134.44;8508994;27;20043;-73
2022/04/28 01:14:47;;;;;;;21.15;10.07;;;;;;;5.80;80.36;100134.28;8509325;27;20055;-74
2022/04/28 01:18:49;;;;;;;18.85;9.82;;;;;;;5.71;80.43;100135.81;8497971;27;20484;-73
2022/04/28 01:22:49;;;;;;;15.95;9.23;;;;;;;5.66;80.36;100127.72;8500959;27;20073;-74
2022/04/28 01:26:53;;;;;;;16.75;8.98;;;;;;;5.56;80.61;100138.28;8508836;27;20500;-73
2022/04/28 01:30:54;;;;;;;19.33;9.77;;;;;;;5.46;80.77;100134.44;8507415;27;20500;-73
2022/04/28 01:34:55;;;;;;;15.77;9.00;;;;;;;5.37;80.88;100138.63;8515819;27;20049;-73
2022/04/28 01:38:56;;;;;;;19.50;8.30;;;;;;;5.28;81.07;100132.09;8527348;27;20042;-73
2022/04/28 01:42:57;;;;;;;16.10;9.70;;;;;;;5.21;81.14;100126.09;8509154;27;20077;-74
2022/04/28 01:46:59;;;;;;;17.42;9.82;;;;;;;5.16;81.01;100134.06;8516790;27;20501;-74
2022/04/28 01:55:21;;;;;;;17.85;10.48;;;;;;;5.03;81.00;100139.78;8507696;27;20043;-74
2022/04/28 01:59:22;;;;;;;19.15;11.35;;;;;;;4.95;81.31;100142.88;8507004;27;20040;-73
2022/04/28 02:03:23;;;;;;;20.58;10.75;;;;;;;4.92;81.34;100138.00;8444062;27;20424;-73
2022/04/28 02:07:27;;;;;;;18.48;10.82;;;;;;;4.89;81.57;100138.53;8474186;27;20059;-73
2022/04/28 02:11:29;;;;;;;23.10;11.27;;;;;;;4.86;81.63;100144.38;8498995;27;20496;-72
2022/04/28 02:15:30;;;;;;;21.13;11.52;;;;;;;4.79;81.58;100143.72;8526292;27;20046;-74
2022/04/28 02:19:31;;;;;;;20.08;11.52;;;;;;;4.74;81.50;100146.31;8512292;27;20088;-73
2022/04/28 02:23:32;;;;;;;27.30;11.85;;;;;;;4.66;81.55;100151.03;8480298;27;20039;-73
2022/04/28 02:27:33;;;;;;;24.80;12.18;;;;;;;4.61;81.81;100147.47;8515214;27;20119;-73
2022/04/28 02:31:34;;;;;;;20.20;11.70;;;;;;;4.51;82.05;100148.13;8512928;27;20050;-73
2022/04/28 02:35:37;;;;;;;23.17;12.50;;;;;;;4.43;82.17;100151.22;8527168;27;20125;-73
2022/04/28 02:39:38;;;;;;;20.58;11.15;;;;;;;4.34;82.45;100136.59;8517687;27;20050;-73
2022/04/28 02:43:39;;;;;;;21.65;11.25;;;;;;;4.28;82.40;100136.78;8488848;27;20111;-73
2022/04/28 02:47:40;;;;;;;22.05;12.15;;;;;;;4.23;82.54;100140.16;8502599;27;20047;-73
2022/04/28 02:51:41;;;;;;;26.63;12.02;;;;;;;4.16;82.76;100139.53;8514822;27;20470;-73
2022/04/28 02:55:43;;;;;;;21.08;12.07;;;;;;;4.13;82.60;100131.97;8516128;27;20160;-73
2022/04/28 02:59:44;;;;;;;22.40;12.27;;;;;;;4.09;82.53;100149.53;8506426;27;20051;-73
2022/04/28 03:03:45;;;;;;;23.55;11.88;;;;;;;3.98;82.82;100143.22;8519193;27;20073;-73
2022/04/28 03:12:09;;;;;;;23.27;11.63;;;;;;;3.82;82.55;100154.66;8529793;27;20038;-73
2022/04/28 03:16:10;;;;;;;21.95;12.00;;;;;;;3.72;82.87;100160.63;8521550;27;20129;-73
2022/04/28 03:20:11;;;;;;;21.83;12.32;;;;;;;3.66;82.91;100161.59;8517599;27;20051;-73
2022/04/28 03:24:12;;;;;;;23.45;12.25;;;;;;;3.64;82.88;100158.34;8500401;27;20142;-73
2022/04/28 03:28:13;;;;;;;23.17;12.95;;;;;;;3.62;82.80;100159.63;8499955;27;20039;-73
2022/04/28 03:32:14;;;;;;;21.88;11.57;;;;;;;3.56;82.89;100166.72;8492352;27;20043;-74
2022/04/28 03:40:35;;;;;;;20.50;12.10;;;;;;;3.44;82.79;100168.63;8488330;27;20047;-73
2022/04/28 03:44:36;;;;;;;28.10;13.13;;;;;;;3.40;82.92;100170.94;8449521;27;20035;-73
2022/04/28 03:48:37;;;;;;;24.50;13.07;;;;;;;3.39;82.93;100176.53;8516901;27;20689;-73
2022/04/28 03:52:39;;;;;;;24.30;12.95;;;;;;;3.40;82.98;100178.97;8486187;27;20058;-72
2022/04/28 03:56:39;;;;;;;31.48;13.80;;;;;;;3.43;82.89;100193.72;8527670;27;20050;-73
2022/04/28 04:00:42;;;;;;;26.02;14.48;;;;;;;3.44;82.70;100179.28;8504859;27;20048;-73
2022/04/28 04:04:43;;;;;;;29.25;14.30;;;;;;;3.48;82.74;100183.13;8515390;27;20058;-73
2022/04/28 04:08:45;;;;;;;25.77;14.40;;;;;;;3.52;82.85;100192.28;8519871;27;20484;-73
2022/04/28 04:12:46;;;;;;;25.63;13.70;;;;;;;3.57;82.90;100195.06;8523202;27;20043;-73
2022/04/28 04:16:47;;;;;;;27.15;14.93;;;;;;;3.66;82.61;100198.97;8496152;27;20039;-73
2022/04/28 04:20:48;;;;;;;31.27;15.77;;;;;;;3.74;82.48;100190.63;8496023;27;20130;-73
2022/04/28 04:24:49;;;;;;;27.77;16.05;;;;;;;3.82;82.44;100208.94;8503184;27;20051;-73
2022/04/28 04:28:50;;;;;;;28.48;14.98;;;;;;;3.91;82.34;100195.19;8521815;27;20799;-73
2022/04/28 04:32:52;;;;;;;24.50;14.85;;;;;;;4.04;82.79;100198.38;8528723;27;20080;-73
2022/04/28 04:36:53;;;;;;;33.65;16.40;;;;;;;4.10;83.12;100212.66;8528794;27;20070;-73
2022/04/28 04:40:54;;;;;;;29.05;16.10;;;;;;;4.19;83.15;100213.88;8483681;27;20050;-73
2022/04/28 04:44:55;;;;;;;31.80;16.65;;;;;;;4.31;83.20;100225.34;8494266;27;20123;-72
2022/04/28 04:48:56;;;;;;;32.03;16.80;;;;;;;4.45;83.23;100213.28;8505923;27;20415;-73
2022/04/28 04:52:57;;;;;;;27.90;15.35;;;;;;;4.58;83.58;100223.69;8485879;27;20035;-73
2022/04/28 04:56:58;;;;;;;31.73;15.20;;;;;;;4.80;85.34;100220.28;8493408;27;20035;-73
2022/04/28 05:01:00;;;;;;;27.27;14.63;;;;;;;5.03;85.11;100220.09;8525736;27;20051;-73
2022/04/28 05:05:01;;;;;;;25.80;14.18;;;;;;;5.25;84.86;100229.00;8520608;27;20047;-73
2022/04/28 05:09:02;;;;;;;25.40;13.68;;;;;;;5.57;84.44;100225.66;8501876;27;20091;-73
2022/04/28 05:13:04;;;;;;;28.20;13.32;;;;;;;5.84;83.64;100226.53;8530354;27;20042;-73
2022/04/28 05:17:05;;;;;;;27.80;13.30;;;;;;;6.14;83.21;100237.63;8512849;27;20054;-73
2022/04/28 05:21:06;;;;;;;23.08;12.27;;;;;;;6.43;81.94;100234.72;8507210;27;20065;-73
2022/04/28 05:25:07;;;;;;;26.98;12.98;;;;;;;6.71;80.98;100237.13;8520092;27;20043;-73
2022/04/28 05:29:08;;;;;;;25.52;12.98;;;;;;;7.03;80.12;100245.97;8454418;27;20763;-73
2022/04/28 05:33:09;;;;;;;27.85;13.27;;;;;;;7.31;78.31;100242.13;8501106;27;20130;-73
2022/04/28 05:37:12;;;;;;;24.17;12.05;;;;;;;7.48;77.62;100252.72;8463946;27;20039;-73
2022/04/28 05:41:13;;;;;;;24.67;12.63;;;;;;;7.56;77.22;100249.53;8514253;27;20047;-73
2022/04/28 05:49:34;;;;;;;;;;;;;;;7.70;76.39;100256.06;8513441;27;20175;-73
2022/04/28 05:53:35;;;;;;;24.08;11.25;;;;;;;7.78;75.20;100257.41;8524129;27;19927;-74
2022/04/28 05:57:36;;;;;;;17.55;9.38;;;;;;;7.90;73.05;100261.53;8485257;27;20446;-73
2022/04/28 06:01:38;;;;;;;18.23;9.77;;;;;;;8.01;72.55;100263.19;8501478;27;20497;-74
2022/04/28 06:05:39;;;;;;;19.40;9.82;;;;;;;8.10;72.38;100271.53;8500517;27;20103;-73
2022/04/28 06:09:40;;;;;;;20.00;9.27;;;;;;;8.19;71.64;100269.97;8480079;27;20047;-73
2022/04/28 06:13:41;;;;;;;15.70;8.93;;;;;;;8.31;70.70;100267.06;8445804;27;20066;-73
2022/04/28 06:17:42;;;;;;;16.25;9.13;;;;;;;8.41;70.67;100277.84;8499878;27;20194;-74
2022/04/28 06:21:43;;;;;;;18.77;9.93;;;;;;;8.50;70.13;100275.47;8462486;27;20047;-74
2022/04/28 06:25:44;;;;;;;25.95;9.68;;;;;;;8.62;69.64;100282.19;8530177;27;20058;-73
2022/04/28 06:29:45;;;;;;;18.83;9.68;;;;;;;8.72;68.38;100273.34;8514251;27;20138;-73
2022/04/28 06:33:47;;;;;;;23.65;9.80;;;;;;;8.78;69.04;100273.06;8532698;27;20060;-73
2022/04/28 06:37:48;;;;;;;14.88;7.90;;;;;;;8.98;68.02;100282.25;8522688;27;20047;-73
2022/04/28 06:41:49;;;;;;;14.77;8.27;;;;;;;9.10;67.76;100274.69;8498408;27;20096;-73
2022/04/28 06:50:10;;;;;;;17.15;8.25;;;;;;;9.25;67.04;100293.56;8498415;27;20046;-73
2022/04/28 06:54:14;;;;;;;13.65;7.78;;;;;;;9.43;66.11;100290.28;8497900;27;20039;-73
2022/04/28 06:58:16;;;;;;;14.18;9.00;;;;;;;9.45;66.16;100298.94;8450536;27;20058;-74
2022/04/28 07:02:18;;;;;;;14.57;8.65;;;;;;;9.54;67.17;100299.97;8479327;27;20074;-73
2022/04/28 07:06:19;;;;;;;19.13;9.60;;;;;;;9.61;66.39;100292.44;8497498;27;20047;-74
2022/04/28 07:10:21;;;;;;;20.55;9.38;;;;;;;9.81;66.19;100296.13;8497862;27;20131;-73
2022/04/28 07:14:22;;;;;;;20.17;9.48;;;;;;;9.90;65.37;100305.28;8497754;27;20047;-73
2022/04/28 07:18:23;;;;;;;19.55;9.32;;;;;;;9.97;65.56;100311.19;8444663;27;20049;-74
2022/04/28 07:22:24;;;;;;;16.13;9.00;;;;;;;10.09;66.42;100303.59;8498077;27;20055;-73
2022/04/28 07:26:24;;;;;;;17.10;8.77;;;;;;;10.25;66.26;100302.50;8496713;27;20077;-73
2022/04/28 07:30:26;;;;;;;21.55;9.35;;;;;;;10.47;65.69;100299.38;8504649;27;20073;-74
2022/04/28 07:34:26;;;;;;;15.18;8.93;;;;;;;10.70;64.49;100308.69;8521868;27;20409;-74
2022/04/28 07:38:27;;;;;;;20.17;7.65;;;;;;;10.90;63.47;100308.56;8530596;27;20066;-74
2022/04/28 07:42:28;;;;;;;13.32;6.97;;;;;;;11.12;61.00;100327.84;8530364;27;20090;-73
2022/04/28 07:46:30;;;;;;;18.40;6.55;;;;;;;11.14;58.08;100314.88;8468728;27;20043;-73
2022/04/28 07:50:32;;;;;;;13.88;5.97;;;;;;;11.19;56.55;100312.13;8516843;27;20409;-76
2022/04/28 07:54:33;;;;;;;15.77;6.30;;;;;;;11.34;58.31;100314.69;8521872;27;20043;-74
2022/04/28 07:58:34;;;;;;;15.77;6.45;;;;;;;11.49;55.85;100321.03;8529114;27;20452;-74
2022/04/28 08:02:38;;;;;;;13.75;5.75;;;;;;;11.48;56.25;100319.44;8529891;27;20050;-73
2022/04/28 08:06:39;;;;;;;10.00;5.35;;;;;;;11.65;55.85;100322.50;8529661;27;20137;-73
2022/04/28 08:10:40;;;;;;;10.95;5.75;;;;;;;11.79;55.41;100320.78;8526597;27;20515;-73
2022/04/28 08:14:41;;;;;;;9.55;6.57;;;;;;;11.90;55.22;100322.28;8516472;27;20125;-74
2022/04/28 08:18:42;;;;;;;13.88;6.05;;;;;;;12.04;53.85;100317.78;8522055;27;20130;-73
2022/04/28 08:22:43;;;;;;;14.57;6.07;;;;;;;12.11;54.99;100315.53;8494836;27;20047;-73
2022/04/28 08:26:44;;;;;;;7.88;4.95;;;;;;;12.25;54.46;100324.59;8462989;27;20154;-74
2022/04/28 08:30:45;;;;;;;9.02;5.22;;;;;;;12.43;53.71;100324.88;8510656;27;20043;-74
2022/04/28 08:34:46;;;;;;;9.13;5.30;;;;;;;12.66;52.12;100340.28;8494828;27;20043;-74
2022/04/28 08:38:47;;;;;;;10.63;5.22;;;;;;;12.55;51.37;100333.41;8479210;27;20527;-74
2022/04/28 08:42:49;;;;;;;9.52;6.03;;;;;;;12.69;50.21;100336.97;8464871;27;20051;-73
2022/04/28 08:46:54;;;;;;;10.35;5.10;;;;;;;12.66;49.28;100334.88;8504087;27;20047;-74
2022/04/28 08:50:56;;;;;;;9.77;4.97;;;;;;;12.81;49.50;100347.41;8499521;27;20043;-73
2022/04/28 08:54:57;;;;;;;9.98;4.95;;;;;;;12.82;49.58;100346.31;8493218;27;20126;-73
2022/04/28 08:58:58;;;;;;;10.02;4.75;;;;;;;13.02;47.57;100338.66;8470738;27;20409;-74
2022/04/28 09:02:59;;;;;;;9.65;4.97;;;;;;;13.11;47.13;100342.34;8506905;27;20066;-73
2022/04/28 09:07:00;;;;;;;10.27;4.38;;;;;;;13.19;47.58;100342.78;8484236;27;20055;-73
2022/04/28 09:11:01;;;;;;;8.02;4.03;;;;;;;13.32;46.15;100347.47;8520915;27;20043;-74
2022/04/28 09:15:13;;;;;;;7.68;3.72;;;;;;;13.40;44.92;100338.63;8523789;27;20070;-74
2022/04/28 09:19:28;;;;;;;7.55;3.70;;;;;;;13.60;44.67;100343.72;8489495;27;20045;-74
2022/04/28 09:23:30;;;;;;;8.23;3.65;;;;;;;13.67;44.12;100344.13;8472173;27;20046;-74
2022/04/28 09:27:31;;;;;;;5.35;3.15;;;;;;;13.74;44.70;100347.28;8520936;27;20043;-73
2022/04/28 09:31:37;;;;;;;9.27;4.57;;;;;;;13.75;44.22;100346.16;8524131;27;20486;-73
2022/04/28 09:35:49;;;;;;;5.40;3.38;;;;;;;13.82;43.41;100341.13;8484021;27;20099;-73
2022/04/28 09:44:21;;;;;;;10.68;4.22;;;;;;;14.18;42.63;100343.16;8491525;27;20041;-73
2022/04/28 09:48:27;;;;;;;8.80;3.97;;;;;;;14.28;42.72;100348.38;8523206;27;20066;-74
2022/04/28 09:52:30;;;;;;;7.25;3.75;;;;;;;14.33;41.86;100351.00;8525773;27;20408;-73
2022/04/28 09:56:34;;;;;;;9.65;4.10;;;;;;;14.44;42.55;100349.72;8525367;27;20035;-74
2022/04/28 10:00:35;;;;;;;7.35;3.83;;;;;;;14.44;41.72;100357.88;8510595;27;20050;-74
2022/04/28 10:04:36;;;;;;;8.70;4.35;;;;;;;14.54;41.80;100354.94;8527105;27;20050;-74
2022/04/28 10:08:38;;;;;;;8.85;4.05;;;;;;;14.58;41.95;100342.34;8532014;27;20394;-74
2022/04/28 10:12:40;;;;;;;8.07;4.10;;;;;;;14.56;42.06;100338.31;8507932;27;20053;-75
2022/04/28 10:16:45;;;;;;;11.40;4.70;;;;;;;14.69;41.94;100343.75;8514089;27;20461;-73
2022/04/28 10:20:50;;;;;;;8.65;5.15;;;;;;;14.73;42.06;100344.75;8531231;27;20238;-73
2022/04/28 10:33:38;;;;;;;9.23;4.80;;;;;;;14.82;41.88;100335.84;8531399;27;20057;-72
2022/04/28 10:37:45;;;;;;;6.55;4.00;;;;;;;15.05;43.09;100345.66;8480377;27;20051;-73
2022/04/28 10:41:47;;;;;;;9.13;4.63;;;;;;;15.17;40.96;100348.63;8525186;27;20057;-74
2022/04/28 10:45:49;;;;;;;10.55;3.92;;;;;;;15.41;43.16;100349.09;8524991;27;20461;-73
2022/04/28 10:49:53;;;;;;;9.98;4.38;;;;;;;15.53;41.28;100345.84;8520398;27;20039;-74
2022/04/28 10:54:03;;;;;;;11.77;5.50;;;;;;;15.47;40.84;100347.88;8520141;27;20039;-73
2022/04/28 10:58:22;;;;;;;8.88;4.88;;;;;;;15.58;40.83;100343.81;8524820;27;20488;-73
2022/04/28 11:02:23;;;;;;;10.27;4.97;;;;;;;15.65;39.59;100337.13;8529939;27;20057;-74
2022/04/28 11:06:31;;;;;;;9.75;4.72;;;;;;;15.73;41.50;100334.44;8512986;27;20054;-73
2022/04/28 11:10:32;;;;;;;12.23;5.30;;;;;;;15.98;40.81;100346.56;8523009;27;20039;-73
2022/04/28 11:14:47;;;;;;;9.52;4.95;;;;;;;15.96;40.46;100344.16;8520174;27;20479;-74
2022/04/28 11:18:48;;;;;;;13.05;6.15;;;;;;;16.14;40.87;100339.56;8516106;27;20077;-73
2022/04/28 11:22:51;;;;;;;10.77;5.13;;;;;;;16.17;40.83;100333.50;8519618;27;20046;-74
2022/04/28 11:26:54;;;;;;;8.13;5.28;;;;;;;16.31;40.47;100347.81;8476773;27;20047;-73
2022/04/28 11:30:57;;;;;;;11.60;5.72;;;;;;;15.96;41.24;100338.72;8459299;27;20540;-73
2022/04/28 11:34:59;;;;;;;10.40;6.30;;;;;;;16.12;40.25;100341.81;8504319;27;20035;-73
2022/04/28 11:39:02;;;;;;;13.48;6.25;;;;;;;16.28;40.31;100355.81;8480905;27;20494;-74
2022/04/28 11:43:04;;;;;;;12.50;5.93;;;;;;;16.32;39.58;100340.44;8526104;27;20053;-74
2022/04/28 11:47:05;;;;;;;11.63;5.30;;;;;;;15.99;39.94;100337.25;8523947;27;20073;-73
2022/04/28 11:51:06;;;;;;;11.40;6.45;;;;;;;16.21;40.21;100331.75;8486950;27;20047;-74
2022/04/28 11:55:08;;;;;;;11.10;6.53;;;;;;;16.28;40.52;100329.38;8525994;27;20465;-73
2022/04/28 11:59:10;;;;;;;16.60;6.00;;;;;;;16.54;40.25;100336.78;8502921;27;20050;-74
2022/04/28 12:03:25;;;;;;;12.13;5.53;;;;;;;16.84;39.71;100339.41;8517694;27;20039;-73
2022/04/28 12:07:36;;;;;;;15.45;5.88;;;;;;;16.77;40.56;100330.09;8474258;27;20049;-73
2022/04/28 12:15:57;;;;;;;10.77;5.63;;;;;;;16.81;39.06;100333.81;8509185;27;20035;-73
2022/04/28 12:20:01;;;;;;;12.80;6.18;;;;;;;16.54;39.26;100342.25;8525274;27;20119;-73
2022/04/28 12:24:11;;;;;;;11.00;5.60;;;;;;;16.09;39.94;100347.88;8526430;27;20070;-73
2022/04/28 12:28:12;;;;;;;9.38;5.53;;;;;;;15.94;40.03;100337.41;8503144;27;20047;-73
2022/04/28 12:32:14;;;;;;;14.10;5.35;;;;;;;16.52;38.54;100317.22;8518169;27;20049;-74
2022/04/28 12:36:16;;;;;;;9.90;5.15;;;;;;;17.10;38.41;100324.97;8484764;27;20057;-73
2022/04/28 12:40:20;;;;;;;9.05;4.25;;;;;;;16.53;39.28;100324.28;8503034;27;20061;-73
2022/04/28 12:44:24;;;;;;;14.45;5.20;;;;;;;16.00;39.94;100336.16;8508562;27;20078;-74
2022/04/28 12:48:31;;;;;;;8.98;4.32;;;;;;;16.09;40.94;100320.63;8504308;27;20408;-73
2022/04/28 12:52:33;;;;;;;12.82;5.22;;;;;;;16.06;39.96;100321.28;8527061;27;20066;-73
2022/04/28 12:56:38;;;;;;;8.27;5.00;;;;;;;16.52;39.90;100322.66;8505317;27;20434;-74
2022/04/28 13:00:40;;;;;;;10.60;5.35;;;;;;;16.35;40.09;100318.78;8489741;27;20046;-73
2022/04/28 13:04:42;;;;;;;13.00;4.43;;;;;;;16.64;40.16;100314.69;8524476;27;20050;-73
2022/04/28 13:08:45;;;;;;;8.45;4.50;;;;;;;16.70;38.59;100324.34;8526787;27;20115;-73
2022/04/28 13:12:46;;;;;;;10.00;4.55;;;;;;;16.30;39.15;100321.66;8487252;27;20107;-73
2022/04/28 13:16:47;;;;;;;9.77;4.40;;;;;;;16.27;39.66;100314.13;8461720;27;20104;-72
2022/04/28 13:21:10;;;;;;;7.65;4.25;;;;;;;16.36;39.55;100314.94;8498267;27;20145;-73
2022/04/28 13:25:13;;;;;;;8.93;4.72;;;;;;;16.55;40.00;100316.59;8422609;28;20406;-73
2022/04/28 13:29:14;;;;;;;13.25;4.55;;;;;;;17.80;36.51;100312.81;8419826;28;20410;-73
2022/04/28 13:33:15;;;;;;;10.98;3.78;;;;;;;18.48;35.36;100300.69;8424453;28;20063;-72
2022/04/28 13:37:16;;;;;;;13.68;4.45;;;;;;;17.64;36.82;100304.34;8429245;28;20088;-73
2022/04/28 13:41:17;;;;;;;22.95;4.93;;;;;;;17.50;36.75;100309.19;8409202;28;20102;-72
2022/04/28 13:45:18;;;;;;;6.65;4.32;;;;;;;19.91;33.78;100297.25;8416427;28;20122;-73
2022/04/28 13:49:19;;;;;;;11.10;3.60;;;;;;;21.87;30.44;100299.06;8419937;27;20098;-75
2022/04/28 13:53:27;;;;;;;9.15;3.60;;;;;;;22.85;28.08;100280.50;8428982;28;20127;-73
2022/04/28 13:57:28;;;;;;;7.13;3.10;;;;;;;23.72;26.78;100276.25;8410005;28;20048;-73
2022/04/28 14:01:31;;;;;;;6.40;3.25;;;;;;;24.79;25.98;100287.72;8467784;27;20102;-74
2022/04/28 14:05:32;;;;;;;7.63;3.47;;;;;;;24.30;26.62;100290.59;8520643;27;20046;-74
2022/04/28 14:09:33;;;;;;;5.53;3.50;;;;;;;25.70;25.78;100294.69;8520695;27;20043;-73
2022/04/28 14:13:35;;;;;;;8.57;2.97;;;;;;;27.10;25.22;100282.94;8531482;27;20404;-74
2022/04/28 14:17:37;;;;;;;6.78;3.55;;;;;;;27.17;23.15;100284.94;8498639;27;20051;-74
2022/04/28 14:21:38;;;;;;;8.05;3.42;;;;;;;27.08;21.87;100285.28;8503013;27;20460;-74
2022/04/28 14:25:39;;;;;;;5.00;3.35;;;;;;;26.95;22.90;100297.94;8476899;27;20050;-75
2022/04/28 14:29:40;;;;;;;7.20;2.70;;;;;;;27.58;22.40;100280.69;8532922;27;20042;-74
2022/04/28 14:33:42;;;;;;;7.68;2.80;;;;;;;27.62;22.41;100297.34;8532498;27;20042;-74
2022/04/28 14:37:43;;;;;;;8.00;3.20;;;;;;;27.61;22.51;100290.19;8532401;27;20488;-74
2022/04/28 14:41:44;;;;;;;7.57;2.90;;;;;;;26.25;22.22;100299.09;8532376;27;20053;-74
2022/04/28 14:45:45;;;;;;;10.73;2.75;;;;;;;25.31;23.89;100284.00;8515849;27;20070;-74
2022/04/28 14:54:06;;;;;;;6.80;2.78;;;;;;;25.61;24.27;100284.72;8423785;28;20040;-73
2022/04/28 14:58:07;;;;;;;6.88;3.25;;;;;;;25.74;22.95;100284.44;8423737;28;20044;-73
2022/04/28 15:02:09;;;;;;;10.30;3.10;;;;;;;25.33;24.13;100281.66;8408422;28;20117;-74
2022/04/28 15:06:13;;;;;;;9.68;3.58;;;;;;;25.43;24.10;100285.72;8432867;27;20122;-75
2022/04/28 15:10:15;;;;;;;6.50;2.92;;;;;;;25.41;23.63;100288.84;8444398;27;20723;-74
2022/04/28 15:14:16;;;;;;;5.80;2.65;;;;;;;24.70;24.18;100288.00;8427425;28;20071;-74
2022/04/28 15:18:17;;;;;;;6.97;2.95;;;;;;;23.32;25.27;100296.00;8417640;27;20135;-73
2022/04/28 15:22:18;;;;;;;6.22;2.95;;;;;;;21.81;27.18;100294.97;8501670;27;20116;-74
2022/04/28 15:26:19;;;;;;;5.68;2.80;;;;;;;21.01;28.76;100295.16;8524367;27;20146;-73
2022/04/28 15:30:20;;;;;;;7.00;3.00;;;;;;;21.39;27.57;100295.47;8501058;27;20125;-73
2022/04/28 15:34:22;;;;;;;7.97;3.03;;;;;;;23.05;26.04;100282.06;8508665;27;20382;-75
2022/04/28 15:38:23;;;;;;;5.97;3.10;;;;;;;24.25;25.26;100293.69;8530853;27;20058;-74
2022/04/28 15:42:24;;;;;;;7.47;2.90;;;;;;;24.52;24.14;100298.03;8518838;27;20043;-75
2022/04/28 15:46:25;;;;;;;10.23;3.47;;;;;;;24.48;24.68;100290.84;8488880;27;20046;-75
2022/04/28 15:50:27;;;;;;;8.75;3.13;;;;;;;24.42;24.69;100295.91;8523654;27;20455;-75
2022/04/28 15:54:28;;;;;;;7.03;3.13;;;;;;;23.54;24.83;100298.78;8520948;27;20045;-74
2022/04/28 15:58:29;;;;;;;7.22;3.47;;;;;;;23.13;25.52;100305.06;8500959;27;20076;-74
2022/04/28 16:02:30;;;;;;;5.40;2.88;;;;;;;24.36;24.74;100294.63;8494229;27;20050;-73
2022/04/28 16:06:31;;;;;;;5.40;2.90;;;;;;;24.87;23.66;100296.88;8523162;27;20038;-72
2022/04/28 16:10:33;;;;;;;6.45;2.90;;;;;;;23.37;24.93;100298.44;8525400;27;20059;-73
2022/04/28 16:14:34;;;;;;;14.50;3.30;;;;;;;21.73;27.16;100298.69;8476601;27;20051;-73
2022/04/28 16:18:35;;;;;;;8.25;3.20;;;;;;;20.83;29.01;100296.63;8528564;27;20498;-73
2022/04/28 16:22:36;;;;;;;6.55;2.55;;;;;;;20.26;30.04;100292.09;8491387;27;20038;-73
2022/04/28 16:26:37;;;;;;;7.93;3.20;;;;;;;19.63;31.13;100297.13;8518635;27;20046;-73
2022/04/28 16:30:40;;;;;;;11.07;3.95;;;;;;;19.13;31.98;100304.72;8529114;27;20043;-73
2022/04/28 16:34:41;;;;;;;10.00;3.78;;;;;;;18.65;31.92;100300.63;8503988;27;20051;-73
2022/04/28 16:38:42;;;;;;;6.68;3.08;;;;;;;18.59;32.12;100296.47;8497072;27;20054;-73
2022/04/28 16:42:43;;;;;;;8.85;3.35;;;;;;;18.41;32.51;100294.94;8494925;27;20051;-73
2022/04/28 16:46:44;;;;;;;10.10;3.53;;;;;;;17.93;33.35;100301.63;8512995;27;20050;-73
2022/04/28 16:50:45;;;;;;;10.27;3.80;;;;;;;17.63;34.30;100310.91;8457213;28;20053;-72
2022/04/28 16:54:47;;;;;;;5.28;3.35;;;;;;;17.51;35.06;100308.03;8512736;27;20051;-73
2022/04/28 16:58:48;;;;;;;8.35;3.88;;;;;;;17.51;35.34;100316.22;8501002;27;20050;-73
2022/04/28 17:07:09;;;;;;;7.63;3.85;;;;;;;16.84;36.27;100314.06;8490688;27;20053;-73
2022/04/28 17:11:10;;;;;;;13.02;4.18;;;;;;;16.55;36.74;100316.59;8504218;27;20682;-73
2022/04/28 17:15:12;;;;;;;13.60;3.75;;;;;;;16.26;37.77;100315.25;8458150;27;20085;-73
2022/04/28 17:19:14;;;;;;;9.38;3.40;;;;;;;16.12;37.80;100325.47;8502314;27;20047;-73
2022/04/28 17:23:15;;;;;;;7.90;3.25;;;;;;;15.86;38.40;100316.41;8514649;27;20062;-73
2022/04/28 17:27:16;;;;;;;6.10;2.95;;;;;;;15.72;39.27;100321.13;8529583;27;20035;-74
2022/04/28 17:31:17;;;;;;;10.95;3.90;;;;;;;15.57;39.87;100330.50;8523979;27;20043;-73
2022/04/28 17:35:18;;;;;;;10.65;4.55;;;;;;;15.42;40.37;100320.78;8485997;27;20496;-73
2022/04/28 17:39:20;;;;;;;6.95;3.17;;;;;;;15.13;41.01;100325.84;8522518;27;20058;-73
2022/04/28 17:43:21;;;;;;;12.52;3.95;;;;;;;14.86;42.11;100332.19;8510545;27;20047;-73
2022/04/28 17:47:22;;;;;;;11.25;3.80;;;;;;;14.54;42.95;100330.47;8534830;27;20047;-73
2022/04/28 17:51:22;;;;;;;10.88;3.95;;;;;;;14.31;44.16;100336.94;8491528;27;20049;-73
2022/04/28 17:59:56;;;;;;;11.43;3.92;;;;;;;13.76;46.71;100353.19;8513439;27;20046;-72
2022/04/28 18:03:57;;;;;;;9.98;3.70;;;;;;;13.46;47.81;100353.72;8504359;27;20504;-73
2022/04/28 18:07:58;;;;;;;9.57;4.60;;;;;;;13.19;48.57;100362.59;8510106;27;20046;-71
2022/04/28 18:11:59;;;;;;;8.73;5.10;;;;;;;12.95;49.66;100365.38;8512312;27;20043;-72
2022/04/28 18:16:00;;;;;;;14.55;8.40;;;;;;;12.69;50.14;100361.38;8492633;27;20051;-72
2022/04/28 18:20:02;;;;;;;19.25;10.20;;;;;;;12.45;50.70;100374.19;8495722;27;20054;-73
2022/04/28 18:24:03;;;;;;;30.70;14.77;;;;;;;12.23;51.52;100375.50;8533737;27;20053;-72
2022/04/28 18:28:05;;;;;;;37.50;16.98;;;;;;;12.00;52.63;100381.72;8462670;27;20560;-72
2022/04/28 18:32:06;;;;;;;36.53;16.30;;;;;;;11.77;53.50;100385.22;8533069;27;20047;-72
2022/04/28 18:44:47;;;;;;;31.92;16.05;;;;;;;11.16;55.19;100399.19;8516565;27;20051;-75
2022/04/28 18:48:50;;;;;;;41.00;18.73;;;;;;;10.99;55.95;100409.59;8525390;27;20054;-72
2022/04/28 18:52:51;;;;;;;26.33;11.52;;;;;;;10.81;56.64;100412.94;8450008;27;20051;-72
2022/04/28 18:56:57;;;;;;;24.88;11.38;;;;;;;10.68;56.99;100414.34;8521295;27;20064;-71
2022/04/28 19:00:59;;;;;;;25.80;10.75;;;;;;;10.57;57.34;100418.97;8508268;27;20043;-71
2022/04/28 19:04:59;;;;;;;19.02;8.43;;;;;;;10.47;58.49;100419.03;8502378;27;20039;-71
2022/04/28 19:09:01;;;;;;;25.50;10.27;;;;;;;10.36;58.60;100416.66;8499381;27;20047;-71
2022/04/28 19:13:02;;;;;;;33.08;14.13;;;;;;;10.26;58.47;100417.47;8470936;27;20046;-71
2022/04/28 19:17:04;;;;;;;40.95;16.15;;;;;;;10.16;58.95;100422.91;8520517;27;20442;-71
2022/04/28 19:21:05;;;;;;;27.98;11.88;;;;;;;10.05;59.13;100426.66;8496134;27;20042;-71
2022/04/28 19:25:07;;;;;;;28.17;11.07;;;;;;;9.98;59.39;100440.47;8509557;27;20091;-72
2022/04/28 19:29:09;;;;;;;38.85;14.82;;;;;;;9.95;60.05;100437.47;8464235;27;20134;-71
2022/04/28 19:33:10;;;;;;;28.90;10.88;;;;;;;9.90;59.99;100434.78;8513960;27;20054;-72
2022/04/28 19:37:11;;;;;;;30.80;11.05;;;;;;;9.83;60.59;100439.69;8521372;27;20043;-71
2022/04/28 19:41:13;;;;;;;25.23;8.48;;;;;;;9.79;60.68;100443.97;8518624;27;20047;-71